Time;durP1;ratioP1;P1;durP2;ratioP2;P2;SDS_P1;SDS_P2;PMS_P1;PMS_P2;Temp;Humidity;BMP_temperature;BMP_pressure;BME280_temperature;BME280_humidity;BME280_pressure;Samples;Min_cycle;Max_cycle;Signal;HPM_P1;HPM_P2
2021/09/09 00:00:58;;;;;;;;;;;;;;;17.14;91.91;100653.93;1709621;82;21162;-82
2021/09/09 00:03:26;;;;;;;;;;;;;;;17.05;92.55;100653.72;1706520;82;20144;-85
2021/09/09 00:05:52;;;;;;;;;;;;;;;16.98;92.95;100652.79;1703429;82;20162;-82
2021/09/09 00:08:19;;;;;;;;;;;;;;;16.91;93.72;100652.72;1684991;82;20143;-82
2021/09/09 00:10:45;;;;;;;;;;;;;;;16.86;93.65;100647.94;1709514;83;20233;-85
2021/09/09 00:13:13;;;;;;;;;;;;;;;16.87;94.00;100651.42;1706643;83;22662;-81
2021/09/09 00:15:38;;;;;;;;;;;;;;;16.84;94.13;100649.94;1703981;83;20213;-81
2021/09/09 00:18:04;;;;;;;;;;;;;;;16.81;94.26;100652.98;1710638;82;20290;-81
2021/09/09 00:20:31;;;;;;;;;;;;;;;16.75;94.67;100654.20;1703567;83;20226;-82
2021/09/09 00:22:57;;;;;;;;;;;;;;;16.76;94.10;100652.69;1709488;82;20208;-81
2021/09/09 00:25:22;;;;;;;;;;;;;;;16.76;93.59;100658.02;1708892;82;21164;-81
2021/09/09 00:27:48;;;;;;;;;;;;;;;16.78;93.70;100654.67;1712355;82;20146;-83
2021/09/09 00:30:16;;;;;;;;;;;;;;;16.74;93.93;100657.90;1705637;83;20209;-81
2021/09/09 00:32:45;;;;;;;;;;;;;;;16.68;94.31;100656.78;1685880;82;20196;-82
2021/09/09 00:35:10;;;;;;;;;;;;;;;16.66;94.39;100654.81;1703226;83;20222;-82
2021/09/09 00:37:36;;;;;;;;;;;;;;;16.63;94.43;100656.52;1715230;82;21110;-81
2021/09/09 00:40:01;;;;;;;;;;;;;;;16.64;94.03;100658.16;1709155;81;20207;-82
2021/09/09 00:42:32;;;;;;;;;;;;;;;16.64;93.84;100653.66;1708274;83;20153;-83
2021/09/09 00:45:00;;;;;;;;;;;;;;;16.67;93.38;100651.12;1706780;83;20245;-82
2021/09/09 00:47:26;;;;;;;;;;;;;;;16.64;93.54;100648.81;1704904;83;20172;-82
2021/09/09 00:49:52;;;;;;;;;;;;;;;16.64;93.30;100651.00;1703574;82;20569;-82
2021/09/09 00:52:19;;;;;;;;;;;;;;;16.65;93.59;100650.48;1702330;82;20127;-82
2021/09/09 00:54:46;;;;;;;;;;;;;;;16.66;93.02;100652.15;1706182;82;20237;-86
2021/09/09 00:57:14;;;;;;;;;;;;;;;16.61;93.84;100650.52;1703814;82;20227;-81
2021/09/09 00:59:43;;;;;;;;;;;;;;;16.59;93.95;100656.55;1705063;82;20159;-81
2021/09/09 01:02:09;;;;;;;;;;;;;;;16.60;93.04;100652.88;1710853;82;20745;-83
2021/09/09 01:04:36;;;;;;;;;;;;;;;16.58;93.38;100652.22;1706043;82;20202;-84
2021/09/09 01:07:04;;;;;;;;;;;;;;;16.54;93.53;100658.95;1706082;82;20627;-84
2021/09/09 01:09:30;;;;;;;;;;;;;;;16.55;93.35;100655.28;1706808;83;20124;-83
2021/09/09 01:11:55;;;;;;;;;;;;;;;16.55;93.05;100652.61;1705780;82;20130;-83
2021/09/09 01:14:22;;;;;;;;;;;;;;;16.50;93.15;100653.98;1705034;82;20548;-83
2021/09/09 01:16:50;;;;;;;;;;;;;;;16.51;92.87;100650.31;1703122;83;20183;-82
2021/09/09 01:19:18;;;;;;;;;;;;;;;16.50;92.49;100649.98;1704873;83;20136;-83
2021/09/09 01:21:47;;;;;;;;;;;;;;;16.49;92.60;100650.98;1704738;83;20231;-83
2021/09/09 01:24:17;;;;;;;;;;;;;;;16.41;93.19;100648.41;1703086;82;20528;-83
2021/09/09 01:26:47;;;;;;;;;;;;;;;16.40;93.31;100648.08;1707481;82;21330;-84
2021/09/09 01:29:13;;;;;;;;;;;;;;;16.27;94.18;100651.89;1702075;83;20512;-84
2021/09/09 01:31:38;;;;;;;;;;;;;;;16.17;94.91;100641.98;1702431;81;20150;-84
2021/09/09 01:34:06;;;;;;;;;;;;;;;16.08;95.46;100643.39;1704740;82;20477;-85
2021/09/09 01:36:32;;;;;;;;;;;;;;;16.04;95.79;100643.42;1688909;83;20164;-83
2021/09/09 01:39:03;;;;;;;;;;;;;;;15.98;95.99;100640.14;1707449;82;21410;-83
2021/09/09 01:41:30;;;;;;;;;;;;;;;15.93;96.25;100639.86;1706116;83;20227;-85
2021/09/09 01:43:56;;;;;;;;;;;;;;;15.88;96.45;100647.54;1710854;82;20143;-84
2021/09/09 01:46:21;;;;;;;;;;;;;;;15.84;96.99;100643.59;1684083;83;20173;-85
2021/09/09 01:48:47;;;;;;;;;;;;;;;15.76;97.39;100643.94;1704673;82;20306;-86
2021/09/09 01:51:16;;;;;;;;;;;;;;;15.72;97.66;100645.33;1687710;83;21236;-83
2021/09/09 01:53:47;;;;;;;;;;;;;;;15.72;97.47;100641.81;1705957;81;20138;-85
2021/09/09 01:56:12;;;;;;;;;;;;;;;15.70;97.40;100644.66;1706502;83;20184;-86
2021/09/09 01:58:44;;;;;;;;;;;;;;;15.67;97.68;100637.02;1700348;82;20701;-84
2021/09/09 02:01:10;;;;;;;;;;;;;;;15.65;97.62;100641.70;1705654;82;20514;-84
2021/09/09 02:03:35;;;;;;;;;;;;;;;15.67;97.45;100642.34;1700580;82;21136;-85
2021/09/09 02:06:03;;;;;;;;;;;;;;;15.69;97.27;100635.03;1702295;83;20289;-84
2021/09/09 02:08:29;;;;;;;;;;;;;;;15.73;96.90;100644.81;1705451;83;20168;-85
2021/09/09 02:10:56;;;;;;;;;;;;;;;15.72;97.02;100637.33;1702243;83;20183;-83
2021/09/09 02:13:22;;;;;;;;;;;;;;;15.70;97.46;100637.17;1705515;83;20233;-84
2021/09/09 02:15:48;;;;;;;;;;;;;;;15.69;97.47;100637.69;1705515;83;21111;-83
2021/09/09 02:18:15;;;;;;;;;;;;;;;15.67;97.31;100634.36;1708040;82;21144;-83
2021/09/09 02:20:48;;;;;;;;;;;;;;;15.68;97.33;100636.02;1706209;83;20236;-83
2021/09/09 02:23:15;;;;;;;;;;;;;;;15.68;97.49;100636.02;1707448;82;20116;-84
2021/09/09 02:25:44;;;;;;;;;;;;;;;15.69;97.30;100636.84;1711002;81;20130;-85
2021/09/09 02:28:09;;;;;;;;;;;;;;;15.69;97.35;100633.70;1726245;82;21245;-83
2021/09/09 02:30:37;;;;;;;;;;;;;;;15.68;97.22;100626.70;1717026;82;20240;-84
2021/09/09 02:33:02;;;;;;;;;;;;;;;15.66;97.49;100630.06;1719829;82;20201;-82
2021/09/09 02:35:29;;;;;;;;;;;;;;;15.62;97.85;100628.74;1724720;82;20231;-83
2021/09/09 02:37:57;;;;;;;;;;;;;;;15.60;98.21;100620.12;1719795;82;20204;-82
2021/09/09 02:40:22;;;;;;;;;;;;;;;15.58;98.20;100623.44;1724410;82;21178;-84
2021/09/09 02:42:50;;;;;;;;;;;;;;;15.51;98.74;100619.33;1698816;82;20174;-83
2021/09/09 02:45:17;;;;;;;;;;;;;;;15.51;98.31;100621.18;1720420;82;20132;-82
2021/09/09 02:47:43;;;;;;;;;;;;;;;15.52;98.47;100614.83;1714634;81;20129;-83
2021/09/09 02:50:09;;;;;;;;;;;;;;;15.50;98.39;100616.84;1715717;82;20170;-81
2021/09/09 02:52:35;;;;;;;;;;;;;;;15.43;99.32;100620.22;1718071;82;21866;-81
2021/09/09 02:55:02;;;;;;;;;;;;;;;15.40;99.50;100621.91;1725732;82;20170;-82
2021/09/09 02:57:29;;;;;;;;;;;;;;;15.38;99.40;100617.27;1722138;82;20442;-83
2021/09/09 02:59:56;;;;;;;;;;;;;;;15.36;99.87;100619.25;1714190;82;20639;-84
2021/09/09 03:02:22;;;;;;;;;;;;;;;15.31;100.00;100615.48;1714232;82;20397;-83
2021/09/09 03:04:49;;;;;;;;;;;;;;;15.31;100.00;100614.97;1701927;82;22517;-82
2021/09/09 03:07:16;;;;;;;;;;;;;;;15.30;100.00;100615.14;1719824;82;20137;-83
2021/09/09 03:09:42;;;;;;;;;;;;;;;15.30;100.00;100614.63;1718513;82;20204;-84
2021/09/09 03:12:08;;;;;;;;;;;;;;;15.30;100.00;100617.30;1713235;82;20109;-83
2021/09/09 03:14:33;;;;;;;;;;;;;;;15.31;100.00;100616.30;1720707;82;20923;-84
2021/09/09 03:16:59;;;;;;;;;;;;;;;15.29;100.00;100615.66;1722467;82;21192;-84
2021/09/09 03:19:28;;;;;;;;;;;;;;;15.26;100.00;100611.50;1719932;82;20152;-83
2021/09/09 03:21:53;;;;;;;;;;;;;;;15.23;100.00;100613.19;1703537;82;20432;-86
2021/09/09 03:24:21;;;;;;;;;;;;;;;15.27;100.00;100617.64;1724380;82;20674;-84
2021/09/09 03:26:49;;;;;;;;;;;;;;;15.23;100.00;100620.34;1720922;81;20192;-84
2021/09/09 03:29:17;;;;;;;;;;;;;;;15.22;100.00;100620.02;1725307;82;21394;-83
2021/09/09 03:31:44;;;;;;;;;;;;;;;15.19;100.00;100617.70;1728213;82;20120;-83
2021/09/09 03:34:12;;;;;;;;;;;;;;;15.22;100.00;100618.68;1729233;82;20182;-83
2021/09/09 03:36:39;;;;;;;;;;;;;;;15.30;99.19;100620.47;1724634;82;20162;-84
2021/09/09 03:39:07;;;;;;;;;;;;;;;15.32;98.75;100621.96;1721070;82;20101;-82
2021/09/09 03:41:33;;;;;;;;;;;;;;;15.36;98.52;100619.25;1718438;82;22084;-83
2021/09/09 03:43:59;;;;;;;;;;;;;;;15.33;98.47;100615.61;1714936;82;20134;-83
2021/09/09 03:46:24;;;;;;;;;;;;;;;15.32;98.16;100612.64;1721110;82;20702;-84
2021/09/09 03:48:50;;;;;;;;;;;;;;;15.31;98.02;100612.82;1719475;82;20444;-85
2021/09/09 03:51:17;;;;;;;;;;;;;;;15.31;99.17;100616.30;1719368;82;20133;-90
2021/09/09 03:53:44;;;;;;;;;;;;;;;15.32;98.19;100613.13;1723080;82;20159;-88
2021/09/09 03:56:11;;;;;;;;;;;;;;;15.28;98.03;100610.00;1719535;82;20132;-84
2021/09/09 03:58:38;;;;;;;;;;;;;;;15.27;97.90;100613.66;1724365;82;20225;-85
2021/09/09 04:01:04;;;;;;;;;;;;;;;15.22;97.93;100607.53;1698922;82;20176;-82
2021/09/09 04:03:29;;;;;;;;;;;;;;;15.24;97.85;100613.52;1720093;82;20190;-82
2021/09/09 04:05:55;;;;;;;;;;;;;;;15.21;97.80;100613.02;1718216;82;21093;-84
2021/09/09 04:08:21;;;;;;;;;;;;;;;15.21;97.95;100611.22;1719817;82;20182;-83
2021/09/09 04:10:47;;;;;;;;;;;;;;;15.18;97.86;100605.39;1716547;82;20251;-83
2021/09/09 04:13:13;;;;;;;;;;;;;;;15.18;97.79;100605.39;1719431;82;20528;-83
2021/09/09 04:15:43;;;;;;;;;;;;;;;15.17;97.97;100601.09;1718629;82;20215;-82
2021/09/09 04:18:08;;;;;;;;;;;;;;;15.15;97.88;100603.08;1720605;82;20347;-83
2021/09/09 04:20:34;;;;;;;;;;;;;;;15.12;98.08;100611.41;1720664;82;20865;-83
2021/09/09 04:23:03;;;;;;;;;;;;;;;15.14;98.02;100605.44;1721943;82;20177;-82
2021/09/09 04:25:31;;;;;;;;;;;;;;;15.17;97.95;100609.08;1719174;82;20188;-83
2021/09/09 04:27:58;;;;;;;;;;;;;;;15.18;97.69;100604.06;1704712;82;20193;-85
2021/09/09 04:30:24;;;;;;;;;;;;;;;15.19;97.60;100607.88;1711043;82;21085;-84
2021/09/09 04:32:49;;;;;;;;;;;;;;;15.19;97.65;100612.38;1702162;82;20257;-86
2021/09/09 04:35:15;;;;;;;;;;;;;;;15.23;98.13;100607.86;1707326;82;20197;-86
2021/09/09 04:37:41;;;;;;;;;;;;;;;15.28;98.20;100608.67;1687313;83;20185;-84
2021/09/09 04:40:09;;;;;;;;;;;;;;;15.26;98.39;100605.37;1707278;82;20169;-82
2021/09/09 04:42:36;;;;;;;;;;;;;;;15.30;98.56;100611.97;1704591;82;21402;-83
2021/09/09 04:45:04;;;;;;;;;;;;;;;15.36;98.04;100606.46;1683723;83;20170;-82
2021/09/09 04:47:29;;;;;;;;;;;;;;;15.36;97.70;100604.62;1706296;82;20185;-86
2021/09/09 04:49:57;;;;;;;;;;;;;;;15.43;97.33;100609.58;1709680;82;20950;-84
2021/09/09 04:52:22;;;;;;;;;;;;;;;15.42;97.10;100605.24;1706106;82;20149;-82
2021/09/09 04:54:48;;;;;;;;;;;;;;;15.50;97.03;100611.53;1704662;82;20440;-81
2021/09/09 04:57:13;;;;;;;;;;;;;;;15.52;96.70;100606.84;1709949;82;20487;-81
2021/09/09 04:59:39;;;;;;;;;;;;;;;15.54;96.59;100611.51;1704817;82;20173;-80
2021/09/09 05:02:09;;;;;;;;;;;;;;;15.57;96.31;100610.64;1706492;83;20717;-81
2021/09/09 05:04:38;;;;;;;;;;;;;;;15.62;96.08;100610.11;1702939;82;20197;-82
2021/09/09 05:07:05;;;;;;;;;;;;;;;15.66;95.89;100613.23;1706817;81;20543;-83
2021/09/09 05:09:32;;;;;;;;;;;;;;;15.69;95.58;100608.41;1703180;82;20175;-83
2021/09/09 05:11:57;;;;;;;;;;;;;;;15.74;95.37;100608.69;1706771;82;20124;-80
2021/09/09 05:14:23;;;;;;;;;;;;;;;15.76;95.06;100605.84;1708563;82;21038;-85
2021/09/09 05:16:51;;;;;;;;;;;;;;;15.81;94.88;100602.67;1682079;83;20160;-80
2021/09/09 05:19:16;;;;;;;;;;;;;;;15.77;94.73;100599.04;1707448;83;20188;-80
2021/09/09 05:21:42;;;;;;;;;;;;;;;15.84;94.49;100604.98;1707477;82;20205;-84
2021/09/09 05:24:08;;;;;;;;;;;;;;;15.88;94.47;100603.59;1701817;82;20136;-77
2021/09/09 05:26:35;;;;;;;;;;;;;;;15.89;93.99;100597.27;1677808;83;20203;-87
2021/09/09 05:29:01;;;;;;;;;;;;;;;15.91;94.14;100604.56;1677910;83;20190;-82
2021/09/09 05:31:27;;;;;;;;;;;;;;;15.98;93.91;100600.19;1681363;83;21081;-83
2021/09/09 05:33:53;;;;;;;;;;;;;;;15.96;94.06;100591.55;1684039;83;20150;-81
2021/09/09 05:36:20;;;;;;;;;;;;;;;16.00;94.08;100596.01;1678764;84;20373;-81
2021/09/09 05:38:46;;;;;;;;;;;;;;;16.07;93.88;100594.29;1674782;83;21181;-79
2021/09/09 05:41:13;;;;;;;;;;;;;;;16.08;93.66;100590.11;1680801;84;20212;-83
2021/09/09 05:43:38;;;;;;;;;;;;;;;16.10;93.35;100585.42;1678667;83;21286;-80
2021/09/09 05:46:06;;;;;;;;;;;;;;;16.18;93.09;100582.36;1681301;84;20561;-83
2021/09/09 05:48:32;;;;;;;;;;;;;;;16.21;92.78;100587.33;1682190;84;20222;-80
2021/09/09 05:51:00;;;;;;;;;;;;;;;16.25;92.82;100585.93;1682143;84;20197;-82
2021/09/09 05:53:26;;;;;;;;;;;;;;;16.28;92.62;100582.42;1678022;84;20707;-84
2021/09/09 05:55:52;;;;;;;;;;;;;;;16.26;92.73;100584.94;1683136;83;21961;-80
2021/09/09 05:58:17;;;;;;;;;;;;;;;16.33;92.85;100588.53;1683398;83;21099;-81
2021/09/09 06:00:43;;;;;;;;;;;;;;;16.26;93.11;100583.59;1678758;84;20188;-80
2021/09/09 06:03:09;;;;;;;;;;;;;;;16.30;92.92;100582.23;1677089;83;20356;-80
2021/09/09 06:05:36;;;;;;;;;;;;;;;16.31;93.15;100585.20;1682422;83;20157;-79
2021/09/09 06:08:03;;;;;;;;;;;;;;;16.38;93.01;100580.80;1685836;84;21032;-79
2021/09/09 06:10:29;;;;;;;;;;;;;;;16.41;92.63;100584.44;1679340;84;20200;-81
2021/09/09 06:12:55;;;;;;;;;;;;;;;16.46;92.97;100590.03;1679974;84;20562;-80
2021/09/09 06:15:22;;;;;;;;;;;;;;;16.51;92.80;100581.00;1680395;83;20590;-79
2021/09/09 06:17:48;;;;;;;;;;;;;;;16.62;92.53;100586.86;1679535;83;20212;-79
2021/09/09 06:20:18;;;;;;;;;;;;;;;16.69;92.15;100585.11;1676676;83;21154;-80
2021/09/09 06:22:43;;;;;;;;;;;;;;;16.78;92.09;100585.33;1680182;82;20621;-81
2021/09/09 06:25:12;;;;;;;;;;;;;;;16.89;91.87;100587.22;1681035;83;20124;-81
2021/09/09 06:27:40;;;;;;;;;;;;;;;17.01;91.37;100585.72;1677739;82;20901;-80
2021/09/09 06:30:09;;;;;;;;;;;;;;;17.06;91.05;100583.34;1704501;82;20173;-80
2021/09/09 06:32:35;;;;;;;;;;;;;;;17.13;90.53;100584.22;1720132;82;21301;-80
2021/09/09 06:35:00;;;;;;;;;;;;;;;17.18;90.33;100586.32;1717034;82;20257;-81
2021/09/09 06:37:26;;;;;;;;;;;;;;;17.26;90.22;100585.38;1720521;82;20157;-81
2021/09/09 06:39:53;;;;;;;;;;;;;;;17.36;90.02;100588.57;1703881;82;20515;-81
2021/09/09 06:42:21;;;;;;;;;;;;;;;17.43;89.74;100582.77;1719201;82;20692;-83
2021/09/09 06:44:47;;;;;;;;;;;;;;;17.48;89.37;100583.05;1718325;82;20595;-82
2021/09/09 06:47:14;;;;;;;;;;;;;;;17.55;88.48;100582.58;1717549;82;20125;-81
2021/09/09 06:49:40;;;;;;;;;;;;;;;17.58;87.92;100590.20;1694748;82;20141;-80
2021/09/09 06:52:10;;;;;;;;;;;;;;;17.64;87.14;100589.96;1718329;82;20996;-84
2021/09/09 06:54:35;;;;;;;;;;;;;;;17.64;86.60;100582.47;1713726;82;20198;-83
2021/09/09 06:57:05;;;;;;;;;;;;;;;17.67;86.14;100582.09;1717447;82;22016;-81
2021/09/09 06:59:30;;;;;;;;;;;;;;;17.72;85.92;100583.66;1720784;82;20202;-79
2021/09/09 07:01:57;;;;;;;;;;;;;;;17.79;85.96;100585.89;1712311;82;20160;-79
2021/09/09 07:04:25;;;;;;;;;;;;;;;17.81;85.44;100582.50;1713547;82;20219;-81
2021/09/09 07:06:50;;;;;;;;;;;;;;;17.87;85.48;100584.41;1713611;82;20192;-82
2021/09/09 07:09:17;;;;;;;;;;;;;;;17.92;85.51;100586.01;1691189;82;21258;-82
2021/09/09 07:11:44;;;;;;;;;;;;;;;17.99;85.24;100586.08;1716780;82;20993;-82
2021/09/09 07:14:12;;;;;;;;;;;;;;;18.06;85.36;100588.79;1717587;82;20202;-81
2021/09/09 07:16:39;;;;;;;;;;;;;;;18.14;84.66;100584.62;1719414;82;20533;-81
2021/09/09 07:19:06;;;;;;;;;;;;;;;18.17;84.31;100590.91;1717562;82;20270;-78
2021/09/09 07:21:32;;;;;;;;;;;;;;;18.25;84.19;100596.10;1716410;82;21114;-80
2021/09/09 07:23:57;;;;;;;;;;;;;;;18.33;83.93;100594.31;1715362;82;20164;-83
2021/09/09 07:26:23;;;;;;;;;;;;;;;18.38;83.87;100593.20;1715657;82;20160;-81
2021/09/09 07:28:48;;;;;;;;;;;;;;;18.46;83.75;100586.37;1692352;82;20138;-81
2021/09/09 07:31:14;;;;;;;;;;;;;;;18.60;83.82;100596.11;1694884;83;20459;-80
2021/09/09 07:33:39;;;;;;;;;;;;;;;18.72;83.43;100587.52;1696607;83;21082;-81
2021/09/09 07:36:07;;;;;;;;;;;;;;;18.82;82.42;100598.69;1692033;83;20181;-83
2021/09/09 07:38:37;;;;;;;;;;;;;;;18.88;81.47;100593.05;1669326;83;20207;-84
2021/09/09 07:41:04;;;;;;;;;;;;;;;18.98;81.69;100593.00;1689950;83;20186;-78
2021/09/09 07:43:32;;;;;;;;;;;;;;;19.06;80.74;100591.99;1693809;83;20967;-83
2021/09/09 07:45:59;;;;;;;;;;;;;;;19.12;79.91;100589.03;1691491;82;20999;-83
2021/09/09 07:48:27;;;;;;;;;;;;;;;19.22;80.22;100585.47;1690525;83;20389;-81
2021/09/09 07:50:56;;;;;;;;;;;;;;;19.31;80.38;100581.58;1690301;83;20135;-81
2021/09/09 07:53:23;;;;;;;;;;;;;;;19.45;80.98;100580.23;1693702;82;20173;-81
2021/09/09 07:55:53;;;;;;;;;;;;;;;19.58;80.12;100581.60;1691378;82;20202;-82
2021/09/09 07:58:19;;;;;;;;;;;;;;;19.68;78.85;100576.64;1691154;83;22726;-82
2021/09/09 08:00:46;;;;;;;;;;;;;;;19.75;78.36;100569.97;1699738;83;20131;-83
2021/09/09 08:03:12;;;;;;;;;;;;;;;19.82;77.22;100577.50;1688273;82;20237;-85
2021/09/09 08:05:38;;;;;;;;;;;;;;;19.94;76.87;100574.22;1691488;83;20170;-81
2021/09/09 08:08:05;;;;;;;;;;;;;;;20.00;76.36;100579.56;1696480;83;20155;-82
2021/09/09 08:10:32;;;;;;;;;;;;;;;20.14;76.98;100578.22;1665636;83;21916;-82
2021/09/09 08:12:59;;;;;;;;;;;;;;;20.21;76.54;100574.98;1698429;83;20169;-84
2021/09/09 08:15:25;;;;;;;;;;;;;;;20.30;75.71;100576.41;1692420;83;20151;-83
2021/09/09 08:17:52;;;;;;;;;;;;;;;20.33;74.88;100573.31;1690519;83;21339;-84
2021/09/09 08:20:18;;;;;;;;;;;;;;;20.38;74.13;100576.70;1692490;83;20226;-88
2021/09/09 08:22:47;;;;;;;;;;;;;;;20.43;73.65;100578.23;1691923;83;21810;-82
2021/09/09 08:25:18;;;;;;;;;;;;;;;20.48;73.46;100573.57;1689998;83;21005;-82
2021/09/09 08:27:46;;;;;;;;;;;;;;;20.54;73.60;100575.41;1692778;83;20178;-79
2021/09/09 08:30:12;;;;;;;;;;;;;;;20.59;72.74;100579.64;1690530;83;20210;-82
2021/09/09 08:32:38;;;;;;;;;;;;;;;20.57;71.91;100579.02;1692483;83;20565;-81
2021/09/09 08:35:04;;;;;;;;;;;;;;;20.59;71.36;100579.64;1695337;83;21029;-80
2021/09/09 08:37:33;;;;;;;;;;;;;;;20.69;71.07;100580.03;1695961;83;20213;-83
2021/09/09 08:39:59;;;;;;;;;;;;;;;20.76;70.96;100582.19;1687671;83;20175;-81
2021/09/09 08:42:26;;;;;;;;;;;;;;;20.83;70.47;100581.33;1669632;83;20297;-79
2021/09/09 08:44:53;;;;;;;;;;;;;;;20.88;70.49;100576.98;1691176;83;20609;-79
2021/09/09 08:47:19;;;;;;;;;;;;;;;20.94;70.42;100576.63;1692448;83;21194;-81
2021/09/09 08:49:48;;;;;;;;;;;;;;;21.06;71.13;100582.97;1691201;83;20272;-80
2021/09/09 08:52:17;;;;;;;;;;;;;;;21.14;70.54;100578.67;1691323;83;20151;-79
2021/09/09 08:54:43;;;;;;;;;;;;;;;21.24;70.65;100578.73;1692376;83;20714;-80
2021/09/09 08:57:09;;;;;;;;;;;;;;;21.36;69.16;100572.97;1693085;83;20314;-82
2021/09/09 08:59:37;;;;;;;;;;;;;;;21.43;67.74;100575.09;1672726;83;21799;-79
2021/09/09 09:02:05;;;;;;;;;;;;;;;21.54;67.51;100570.92;1691803;83;20227;-80
2021/09/09 09:04:32;;;;;;;;;;;;;;;21.64;67.46;100573.11;1689288;83;20182;-81
2021/09/09 09:06:59;;;;;;;;;;;;;;;21.70;67.58;100569.55;1689875;83;20196;-81
2021/09/09 09:09:28;;;;;;;;;;;;;;;21.79;68.04;100568.76;1687988;83;20314;-81
2021/09/09 09:11:55;;;;;;;;;;;;;;;21.93;67.82;100565.43;1694891;83;21293;-81
2021/09/09 09:14:25;;;;;;;;;;;;;;;21.98;66.75;100563.70;1690699;83;20234;-80
2021/09/09 09:16:53;;;;;;;;;;;;;;;22.05;66.48;100559.09;1695465;83;20203;-81
2021/09/09 09:19:24;;;;;;;;;;;;;;;22.16;66.23;100557.54;1688702;83;20225;-81
2021/09/09 09:21:57;;;;;;;;;;;;;;;22.23;65.24;100554.77;1693019;83;20214;-79
2021/09/09 09:24:25;;;;;;;;;;;;;;;22.31;63.86;100557.22;1690492;83;21101;-80
2021/09/09 09:27:13;;;;;;;;;;;;;;;22.37;64.14;100556.32;1695591;83;20498;-81
2021/09/09 09:29:42;;;;;;;;;;;;;;;22.42;64.10;100555.65;1701943;82;20235;-79
2021/09/09 09:32:12;;;;;;;;;;;;;;;;;;1705718;82;21195;-80
2021/09/09 09:34:38;;;;;;;;;;;;;;;22.60;64.21;100556.14;1709298;82;20582;-81
2021/09/09 09:37:04;;;;;;;;;;;;;;;22.71;63.19;100551.86;1706461;82;21799;-82
2021/09/09 09:39:33;;;;;;;;;;;;;;;22.79;62.87;100550.20;1715854;81;21286;-83
2021/09/09 09:42:01;;;;;;;;;;;;;;;22.84;62.55;100550.36;1692373;83;20253;-82
2021/09/09 09:44:35;;;;;;;;;;;;;;;22.83;60.69;100554.09;1703052;82;20134;-81
2021/09/09 09:47:10;;;;;;;;;;;;;;;22.85;60.64;100549.83;1706264;82;20535;-82
2021/09/09 09:49:42;;;;;;;;;;;;;;;22.89;60.73;100546.45;1700598;82;21117;-81
2021/09/09 09:52:11;;;;;;;;;;;;;;;22.97;61.00;100543.15;1702302;82;20207;-82
2021/09/09 09:54:37;;;;;;;;;;;;;;;23.06;60.71;100543.13;1705976;82;21068;-84
2021/09/09 09:57:03;;;;;;;;;;;;;;;23.08;59.69;100538.32;1703168;82;20142;-82
2021/09/09 09:59:28;;;;;;;;;;;;;;;23.11;59.21;100539.23;1706682;82;20233;-80
2021/09/09 10:01:54;;;;;;;;;;;;;;;23.13;58.19;100541.16;1706201;82;21091;-78
2021/09/09 10:04:20;;;;;;;;;;;;;;;23.20;58.09;100535.16;1706560;82;20141;-80
2021/09/09 10:06:48;;;;;;;;;;;;;;;23.26;57.58;100535.59;1708000;81;20140;-80
2021/09/09 10:09:14;;;;;;;;;;;;;;;23.35;57.37;100533.90;1706202;82;20183;-81
2021/09/09 10:11:39;;;;;;;;;;;;;;;23.41;57.18;100532.97;1706029;82;21652;-82
2021/09/09 10:14:05;;;;;;;;;;;;;;;23.46;57.42;100528.54;1704121;82;22340;-81
2021/09/09 10:16:32;;;;;;;;;;;;;;;23.58;59.10;100523.14;1706455;82;20144;-81
2021/09/09 10:18:58;;;;;;;;;;;;;;;23.72;59.44;100520.23;1683433;82;20194;-80
2021/09/09 10:21:44;;;;;;;;;;;;;;;23.81;58.06;100522.87;1705851;81;20188;-79
2021/09/09 10:24:23;;;;;;;;;;;;;;;23.88;56.88;100519.56;1703179;82;20234;-80
2021/09/09 10:26:50;;;;;;;;;;;;;;;24.03;57.04;100522.30;1704501;82;21055;-83
2021/09/09 10:29:44;;;;;;;;;;;;;;;24.11;55.56;100516.53;1685951;82;38975;-81
2021/09/09 10:32:35;;;;;;;;;;;;;;;24.18;55.16;100515.89;1716347;82;20157;-81
2021/09/09 10:35:22;;;;;;;;;;;;;;;24.24;55.50;100515.45;1710839;82;20233;-83
2021/09/09 10:37:54;;;;;;;;;;;;;;;24.27;54.66;100511.77;1716992;81;20639;-83
2021/09/09 10:40:41;;;;;;;;;;;;;;;24.26;54.87;100507.41;1719920;81;21218;-84
2021/09/09 10:43:12;;;;;;;;;;;;;;;24.28;54.76;100502.59;1713860;82;20145;-80
2021/09/09 10:45:40;;;;;;;;;;;;;;;24.33;54.27;100506.77;1715062;82;20150;-83
2021/09/09 10:48:08;;;;;;;;;;;;;;;24.40;54.66;100499.05;1714589;82;20534;-83
2021/09/09 10:50:34;;;;;;;;;;;;;;;24.42;53.33;100502.33;1712254;82;20634;-82
2021/09/09 10:53:12;;;;;;;;;;;;;;;24.48;54.05;100494.08;1715005;81;21094;-84
2021/09/09 10:55:39;;;;;;;;;;;;;;;24.51;53.43;100500.89;1712905;82;21228;-85
2021/09/09 10:58:22;;;;;;;;;;;;;;;24.57;53.36;100499.96;1686926;82;20195;-85
2021/09/09 11:00:55;;;;;;;;;;;;;;;24.59;53.70;100492.43;1715950;82;20177;-86
2021/09/09 11:03:40;;;;;;;;;;;;;;;24.64;54.51;100483.60;1710687;82;20209;-85
2021/09/09 11:06:10;;;;;;;;;;;;;;;24.72;53.35;100488.64;1716903;81;21551;-84
2021/09/09 11:08:37;;;;;;;;;;;;;;;24.76;52.99;100484.91;1711529;82;20153;-84
2021/09/09 11:11:04;;;;;;;;;;;;;;;24.80;52.24;100484.73;1715027;82;20148;-85
2021/09/09 11:13:32;;;;;;;;;;;;;;;24.86;51.53;100481.03;1711154;82;20158;-83
2021/09/09 11:15:58;;;;;;;;;;;;;;;24.94;50.85;100480.66;1685859;82;20201;-83
2021/09/09 11:18:29;;;;;;;;;;;;;;;25.02;51.34;100479.44;1716298;82;22355;-83
2021/09/09 11:21:04;;;;;;;;;;;;;;;25.09;51.01;100479.56;1712108;82;20158;-83
2021/09/09 11:23:30;;;;;;;;;;;;;;;25.09;50.14;100478.22;1719484;82;20217;-86
2021/09/09 11:25:57;;;;;;;;;;;;;;;25.11;50.67;100475.27;1717809;82;20215;-88
2021/09/09 11:28:24;;;;;;;;;;;;;;;25.12;49.39;100473.38;1710404;82;20514;-85
2021/09/09 11:31:10;;;;;;;;;;;;;;;25.17;49.53;100468.05;1678880;82;21827;-83
2021/09/09 11:33:51;;;;;;;;;;;;;;;25.20;49.93;100476.50;1702939;83;20138;-84
2021/09/09 11:36:19;;;;;;;;;;;;;;;25.29;49.96;100472.06;1711667;82;20201;-85
2021/09/09 11:38:45;;;;;;;;;;;;;;;25.36;49.57;100465.42;1702248;82;20492;-80
2021/09/09 11:41:12;;;;;;;;;;;;;;;25.43;49.49;100464.73;1701853;82;20270;-83
2021/09/09 11:43:40;;;;;;;;;;;;;;;25.40;48.73;100459.81;1699185;83;22173;-81
2021/09/09 11:46:06;;;;;;;;;;;;;;;25.44;49.59;100452.83;1682847;83;20178;-81
2021/09/09 11:48:32;;;;;;;;;;;;;;;25.54;49.05;100454.05;1708588;82;20234;-78
2021/09/09 11:51:00;;;;;;;;;;;;;;;25.60;49.22;100453.05;1704566;82;20418;-80
2021/09/09 11:53:26;;;;;;;;;;;;;;;25.63;49.14;100447.95;1708692;82;20175;-81
2021/09/09 11:55:52;;;;;;;;;;;;;;;25.68;48.26;100444.50;1711637;82;21043;-80
2021/09/09 11:58:38;;;;;;;;;;;;;;;25.74;48.07;100447.56;1714936;81;20218;-80
2021/09/09 12:01:05;;;;;;;;;;;;;;;25.76;47.41;100438.68;1699495;83;20182;-77
2021/09/09 12:03:30;;;;;;;;;;;;;;;25.80;46.35;100437.09;1703330;83;20178;-77
2021/09/09 12:05:58;;;;;;;;;;;;;;;25.83;45.75;100431.73;1706343;83;20198;-80
2021/09/09 12:08:26;;;;;;;;;;;;;;;25.85;45.16;100440.94;1700887;82;21107;-83
2021/09/09 12:10:56;;;;;;;;;;;;;;;25.85;43.93;100439.59;1705798;81;20191;-87
2021/09/09 12:13:30;;;;;;;;;;;;;;;25.96;44.83;100435.42;1685678;83;20151;-85
2021/09/09 12:15:55;;;;;;;;;;;;;;;26.01;44.35;100437.41;1708043;83;21073;-85
2021/09/09 12:18:21;;;;;;;;;;;;;;;25.98;43.38;100427.08;1709492;82;20160;-83
2021/09/09 12:20:46;;;;;;;;;;;;;;;26.01;42.88;100428.45;1689659;83;21299;-82
2021/09/09 12:23:17;;;;;;;;;;;;;;;25.94;43.20;100427.27;1684765;83;20146;-83
2021/09/09 12:25:45;;;;;;;;;;;;;;;26.06;43.42;100433.40;1702635;83;20160;-85
2021/09/09 12:28:15;;;;;;;;;;;;;;;26.24;42.67;100423.30;1712778;82;20237;-82
2021/09/09 12:30:55;;;;;;;;;;;;;;;26.31;42.32;100424.74;1705016;82;20206;-85
2021/09/09 12:33:39;;;;;;;;;;;;;;;26.42;43.22;100422.96;1704724;82;21203;-84
2021/09/09 12:36:20;;;;;;;;;;;;;;;26.48;42.78;100426.55;1700990;82;20499;-83
2021/09/09 12:38:58;;;;;;;;;;;;;;;26.62;42.85;100416.13;1708127;81;20517;-84
2021/09/09 12:41:31;;;;;;;;;;;;;;;26.72;42.74;100406.75;1700109;83;20340;-85